This is the latest recevied weather packets stored in our database for station/object KE8BSM. If no packets are shown the sender has not sent any weather packets the latest 10 day(s).
| Time | Temp. | Humidity | Pressure | Rain* | Wind** | Luminosity | Snow |
|---|---|---|---|---|---|---|---|
| 1777181237 | 8.89° C | 84% | 1018 hPa | 0 mm | - | 0 W/m² | - |
| 1777180637 | 9.44° C | 83% | 1018 hPa | 0 mm | - | 0 W/m² | - |
| 1777177638 | 10.56° C | 85% | 1017.7 hPa | 0 mm | - | 0 W/m² | - |
| 1777176438 | 10.56° C | 85% | 1017.6 hPa | 0 mm | - | 0 W/m² | - |
| 1777175838 | 11.11° C | 85% | 1017.6 hPa | 0 mm | - | 0 W/m² | - |
| 1777174635 | 11.11° C | 84% | 1017.5 hPa | 0 mm | - | 0 W/m² | - |
| 1777173436 | 11.67° C | 83% | 1017.6 hPa | 0 mm | - | 0 W/m² | - |
| 1777172836 | 11.67° C | 84% | 1017.5 hPa | 0 mm | - | 0 W/m² | - |
| 1777162636 | 15.56° C | 72% | 1015.8 hPa | 0 mm | - | 11 W/m² | - |
| 1777159036 | 18.89° C | 60% | 1014.6 hPa | 0 mm | - | 142 W/m² | - |
| 1777153038 | 20.56° C | 53% | 1013.3 hPa | 0 mm | - | 506 W/m² | - |
| 1777152438 | 20.56° C | 54% | 1013.3 hPa | 0 mm | - | 136 W/m² | - |
| 1777151236 | 20.56° C | 53% | 1013.3 hPa | 0 mm | - | 588 W/m² | - |
| 1777148237 | 20° C | 54% | 1013.1 hPa | 0 mm | - | 713 W/m² | - |
| 1777147036 | 19.44° C | 55% | 1013.1 hPa | 0 mm | - | 757 W/m² | - |
| 1777139236 | 17.22° C | 63% | 1013.5 hPa | 0 mm | - | 887 W/m² | - |
| 1777121837 | 8.89° C | 89% | 1014 hPa | 0 mm | - | 76 W/m² | - |
| 1777121238 | 8.89° C | 89% | 1013.9 hPa | 0 mm | - | 88 W/m² | - |
| 1777118837 | 8.33° C | 93% | 1013.4 hPa | 0 mm | - | 40 W/m² | - |
| 1777114639 | 7.78° C | 96% | 1012.1 hPa | 0 mm | - | 4 W/m² | - |
| 1777112240 | 7.78° C | 95% | 1011.7 hPa | 0 mm | - | 0 W/m² | - |
| 1777109280 | 7.78° C | 96% | 1011.4 hPa | 0 mm | - | 0 W/m² | - |
| 1777103236 | 9.44° C | 91% | 1010.1 hPa | 0 mm | - | 0 W/m² | - |
| 1777100236 | 10.56° C | 90% | 1009.5 hPa | 0 mm | - | 0 W/m² | - |
| 1777099036 | 11.67° C | 94% | 1009.6 hPa | 0 mm | - | 0 W/m² | - |
* Rain latest hour (hover to see other rain measurements)
** Current wind speed in m/s (hover to see current wind gust speed)